createdAt,value
2022-07-31T00:00:33.812Z,1014.14
2022-07-31T00:01:33.847Z,1014.12
2022-07-31T00:02:34.129Z,1014.09
2022-07-31T00:03:34.025Z,1014.14
2022-07-31T00:05:41.582Z,1014.16
2022-07-31T00:06:34.021Z,1014.13
2022-07-31T00:08:34.091Z,1014.15
2022-07-31T00:09:52.395Z,1014.16
2022-07-31T00:10:34.165Z,1014.16
2022-07-31T00:12:34.247Z,1014.17
2022-07-31T00:13:57.159Z,1014.15
2022-07-31T00:14:34.313Z,1014.14
2022-07-31T00:15:34.369Z,1014.15
2022-07-31T00:16:34.382Z,1014.14
2022-07-31T00:17:34.433Z,1014.16
2022-07-31T00:18:34.449Z,1014.15
2022-07-31T00:19:34.504Z,1014.15
2022-07-31T00:21:34.554Z,1014.13
2022-07-31T00:22:34.874Z,1014.10
2022-07-31T00:23:34.625Z,1014.11
2022-07-31T00:24:34.658Z,1014.10
2022-07-31T00:25:34.697Z,1014.06
2022-07-31T00:26:34.772Z,1014.07
2022-07-31T00:28:34.803Z,1014.04
2022-07-31T00:29:34.851Z,1014.04
2022-07-31T00:30:34.874Z,1014.04
2022-07-31T00:33:34.980Z,1013.98
2022-07-31T00:34:35.035Z,1013.98
2022-07-31T00:37:35.119Z,1013.93
2022-07-31T00:38:35.160Z,1013.91
2022-07-31T00:39:35.192Z,1013.92
2022-07-31T00:40:35.241Z,1013.88
2022-07-31T00:41:35.517Z,1013.86
2022-07-31T00:42:35.304Z,1013.82
2022-07-31T00:43:35.338Z,1013.80
2022-07-31T00:44:35.380Z,1013.82
2022-07-31T00:45:35.428Z,1013.80
2022-07-31T00:46:35.447Z,1013.82
2022-07-31T00:47:35.477Z,1013.81
2022-07-31T00:48:35.527Z,1013.80
2022-07-31T00:49:37.477Z,1013.79
2022-07-31T00:50:35.583Z,1013.78
2022-07-31T00:51:35.626Z,1013.76
2022-07-31T00:52:35.655Z,1013.72
2022-07-31T00:53:35.690Z,1013.77
2022-07-31T00:55:41.823Z,1013.78
2022-07-31T00:56:35.795Z,1013.75
2022-07-31T00:57:35.841Z,1013.73
2022-07-31T00:58:35.865Z,1013.76
2022-07-31T00:59:35.914Z,1013.74
2022-07-31T01:00:36.237Z,1013.77
2022-07-31T01:01:36.031Z,1013.73
2022-07-31T01:02:36.019Z,1013.73
2022-07-31T01:03:36.175Z,1013.76
2022-07-31T01:04:36.081Z,1013.74
2022-07-31T01:05:36.131Z,1013.70
2022-07-31T01:06:39.719Z,1013.68
2022-07-31T01:07:36.494Z,1013.70
2022-07-31T01:08:36.220Z,1013.70
2022-07-31T01:09:36.254Z,1013.67
2022-07-31T01:10:36.305Z,1013.66
2022-07-31T01:11:36.327Z,1013.66
2022-07-31T01:12:36.362Z,1013.65
2022-07-31T01:13:36.395Z,1013.65
2022-07-31T01:14:36.733Z,1013.65
2022-07-31T01:15:36.470Z,1013.67
2022-07-31T01:16:36.523Z,1013.64
2022-07-31T01:17:36.549Z,1013.64
2022-07-31T01:18:36.573Z,1013.65
2022-07-31T01:19:38.137Z,1013.61
2022-07-31T01:20:36.641Z,1013.61
2022-07-31T01:21:36.689Z,1013.63
2022-07-31T01:22:36.717Z,1013.67
2022-07-31T01:23:36.759Z,1013.67
2022-07-31T01:24:36.786Z,1013.66
2022-07-31T01:25:36.819Z,1013.74
2022-07-31T01:26:36.854Z,1013.69
2022-07-31T01:27:49.659Z,1013.65
2022-07-31T01:28:36.927Z,1013.69
2022-07-31T01:29:36.968Z,1013.66
2022-07-31T01:30:36.998Z,1013.68
2022-07-31T01:31:37.061Z,1013.66
2022-07-31T01:32:37.088Z,1013.65
2022-07-31T01:33:37.106Z,1013.62
2022-07-31T01:34:37.136Z,1013.61
2022-07-31T01:35:37.175Z,1013.58
2022-07-31T01:36:37.205Z,1013.58
2022-07-31T01:37:37.250Z,1013.56
2022-07-31T01:38:37.354Z,1013.54
2022-07-31T01:39:37.317Z,1013.55
2022-07-31T01:40:37.348Z,1013.57
2022-07-31T01:41:37.384Z,1013.59
2022-07-31T01:42:37.419Z,1013.56
2022-07-31T01:43:37.457Z,1013.59
2022-07-31T01:44:37.796Z,1013.61
2022-07-31T01:45:37.525Z,1013.61
2022-07-31T01:46:41.676Z,1013.58
2022-07-31T01:47:37.594Z,1013.57
2022-07-31T01:48:37.636Z,1013.55
2022-07-31T01:49:37.678Z,1013.55
2022-07-31T01:50:43.633Z,1013.54
2022-07-31T01:51:38.036Z,1013.56
2022-07-31T01:52:37.779Z,1013.57
2022-07-31T01:53:37.807Z,1013.54
2022-07-31T01:54:37.849Z,1013.58
2022-07-31T01:56:03.832Z,1013.57
2022-07-31T01:56:37.909Z,1013.59
2022-07-31T01:57:37.946Z,1013.56
2022-07-31T01:58:37.989Z,1013.59
2022-07-31T01:59:38.019Z,1013.58
2022-07-31T02:00:38.185Z,1013.59
2022-07-31T02:01:38.167Z,1013.56
2022-07-31T02:02:38.128Z,1013.56
2022-07-31T02:03:44.224Z,1013.58
2022-07-31T02:04:38.496Z,1013.56
2022-07-31T02:05:38.230Z,1013.57
2022-07-31T02:06:38.271Z,1013.56
2022-07-31T02:07:38.299Z,1013.55
2022-07-31T02:08:38.332Z,1013.53
2022-07-31T02:09:52.056Z,1013.48
2022-07-31T02:10:38.432Z,1013.52
2022-07-31T02:11:53.326Z,1013.48
2022-07-31T02:12:38.477Z,1013.48
2022-07-31T02:14:38.549Z,1013.44
2022-07-31T02:15:38.579Z,1013.49
2022-07-31T02:16:38.618Z,1013.50
2022-07-31T02:17:38.649Z,1013.47
2022-07-31T02:18:38.783Z,1013.43
2022-07-31T02:19:38.745Z,1013.42
2022-07-31T02:20:38.753Z,1013.43
2022-07-31T02:21:38.789Z,1013.44
2022-07-31T02:22:39.126Z,1013.45
2022-07-31T02:23:38.864Z,1013.44
2022-07-31T02:24:38.894Z,1013.44
2022-07-31T02:25:38.930Z,1013.46
2022-07-31T02:26:38.965Z,1013.44
2022-07-31T02:27:55.558Z,1013.45
2022-07-31T02:28:39.037Z,1013.43
2022-07-31T02:29:39.331Z,1013.45
2022-07-31T02:30:39.930Z,1013.43
2022-07-31T02:31:39.141Z,1013.42
2022-07-31T02:32:39.178Z,1013.41
2022-07-31T02:33:39.210Z,1013.41
2022-07-31T02:34:39.253Z,1013.39
2022-07-31T02:35:39.282Z,1013.38
2022-07-31T02:36:39.820Z,1013.42
2022-07-31T02:37:39.350Z,1013.40
2022-07-31T02:38:39.388Z,1013.40
2022-07-31T02:39:39.431Z,1013.47
2022-07-31T02:40:39.460Z,1013.53
2022-07-31T02:42:39.568Z,1013.61
2022-07-31T02:43:39.579Z,1013.54
2022-07-31T02:44:39.595Z,1013.51
2022-07-31T02:45:39.632Z,1013.51
2022-07-31T02:46:39.667Z,1013.51
2022-07-31T02:47:39.700Z,1013.48
2022-07-31T02:48:39.736Z,1013.43
2022-07-31T02:49:40.073Z,1013.47
2022-07-31T02:50:39.817Z,1013.47
2022-07-31T02:51:39.849Z,1013.47
2022-07-31T02:52:39.894Z,1013.43
2022-07-31T02:53:39.917Z,1013.44
2022-07-31T02:54:39.947Z,1013.40
2022-07-31T02:55:39.983Z,1013.47
2022-07-31T02:56:40.315Z,1013.46
2022-07-31T02:57:40.054Z,1013.43
2022-07-31T02:58:40.088Z,1013.45
2022-07-31T02:59:40.121Z,1013.44
2022-07-31T03:00:40.206Z,1013.45
2022-07-31T03:01:40.198Z,1013.46
2022-07-31T03:02:40.477Z,1013.45
2022-07-31T03:04:40.297Z,1013.41
2022-07-31T03:05:40.358Z,1013.41
2022-07-31T03:06:40.371Z,1013.42
2022-07-31T03:07:40.402Z,1013.41
2022-07-31T03:08:40.804Z,1013.40
2022-07-31T03:09:40.483Z,1013.42
2022-07-31T03:10:40.511Z,1013.44
2022-07-31T03:11:40.546Z,1013.41
2022-07-31T03:12:40.577Z,1013.44
2022-07-31T03:13:40.611Z,1013.43
2022-07-31T03:14:40.950Z,1013.40
2022-07-31T03:15:40.684Z,1013.45
2022-07-31T03:16:40.733Z,1013.45
2022-07-31T03:17:41.801Z,1013.42
2022-07-31T03:18:40.792Z,1013.46
2022-07-31T03:19:40.823Z,1013.44
2022-07-31T03:20:40.881Z,1013.44
2022-07-31T03:21:41.195Z,1013.45
2022-07-31T03:22:40.933Z,1013.43
2022-07-31T03:23:41.009Z,1013.47
2022-07-31T03:24:40.996Z,1013.48
2022-07-31T03:25:41.033Z,1013.44
2022-07-31T03:26:41.069Z,1013.44
2022-07-31T03:27:41.098Z,1013.45
2022-07-31T03:28:41.437Z,1013.43
2022-07-31T03:29:43.260Z,1013.45
2022-07-31T03:30:41.208Z,1013.50
2022-07-31T03:31:41.241Z,1013.45
2022-07-31T03:32:41.476Z,1013.46
2022-07-31T03:33:41.310Z,1013.43
2022-07-31T03:34:41.349Z,1013.45
2022-07-31T03:36:41.717Z,1013.42
2022-07-31T03:37:41.452Z,1013.41
2022-07-31T03:38:43.965Z,1013.42
2022-07-31T03:39:41.558Z,1013.42
2022-07-31T03:40:41.556Z,1013.40
2022-07-31T03:41:41.594Z,1013.39
2022-07-31T03:42:41.727Z,1013.39
2022-07-31T03:43:44.114Z,1013.41
2022-07-31T03:44:41.692Z,1013.41
2022-07-31T03:45:41.729Z,1013.41
2022-07-31T03:46:41.767Z,1013.44
2022-07-31T03:47:41.799Z,1013.42
2022-07-31T03:48:41.845Z,1013.43
2022-07-31T03:49:41.875Z,1013.46
2022-07-31T03:50:41.904Z,1013.46
2022-07-31T03:51:41.975Z,1013.46
2022-07-31T03:52:41.977Z,1013.47
2022-07-31T03:53:42.011Z,1013.48
2022-07-31T03:54:42.044Z,1013.46
2022-07-31T03:55:42.086Z,1013.49
2022-07-31T03:56:42.118Z,1013.44
2022-07-31T03:57:42.155Z,1013.43
2022-07-31T03:58:42.186Z,1013.44
2022-07-31T03:59:48.636Z,1013.45
2022-07-31T04:00:42.258Z,1013.41
2022-07-31T04:01:58.397Z,1013.40
2022-07-31T04:02:42.376Z,1013.43
2022-07-31T04:03:42.372Z,1013.45
2022-07-31T04:04:42.398Z,1013.47
2022-07-31T04:05:42.431Z,1013.44
2022-07-31T04:06:42.464Z,1013.48
2022-07-31T04:07:42.759Z,1013.48
2022-07-31T04:08:42.534Z,1013.46
2022-07-31T04:09:42.583Z,1013.47
2022-07-31T04:10:42.604Z,1013.45
2022-07-31T04:11:42.639Z,1013.45
2022-07-31T04:12:42.674Z,1013.48
2022-07-31T04:13:42.958Z,1013.49
2022-07-31T04:15:42.778Z,1013.47
2022-07-31T04:16:42.813Z,1013.48
2022-07-31T04:17:42.846Z,1013.47
2022-07-31T04:18:42.884Z,1013.51
2022-07-31T04:19:43.216Z,1013.49
2022-07-31T04:20:42.955Z,1013.52
2022-07-31T04:21:42.990Z,1013.48
2022-07-31T04:22:43.023Z,1013.50
2022-07-31T04:23:43.056Z,1013.50
2022-07-31T04:24:43.094Z,1013.49
2022-07-31T04:25:43.164Z,1013.52
2022-07-31T04:26:43.460Z,1013.49
2022-07-31T04:27:48.303Z,1013.47
2022-07-31T04:28:43.241Z,1013.47
2022-07-31T04:29:43.283Z,1013.45
2022-07-31T04:30:43.301Z,1013.44
2022-07-31T04:31:43.338Z,1013.45
2022-07-31T04:32:43.379Z,1013.41
2022-07-31T04:33:47.333Z,1013.43
2022-07-31T04:34:43.442Z,1013.42
2022-07-31T04:35:43.497Z,1013.41
2022-07-31T04:36:43.512Z,1013.42
2022-07-31T04:37:48.105Z,1013.43
2022-07-31T04:38:43.583Z,1013.44
2022-07-31T04:39:43.616Z,1013.46
2022-07-31T04:40:43.660Z,1013.44
2022-07-31T04:41:43.684Z,1013.47
2022-07-31T04:42:43.726Z,1013.46
2022-07-31T04:43:43.754Z,1013.48
2022-07-31T04:44:43.789Z,1013.48
2022-07-31T04:45:43.826Z,1013.50
2022-07-31T04:47:44.195Z,1013.52
2022-07-31T04:48:43.929Z,1013.55
2022-07-31T04:49:43.974Z,1013.57
2022-07-31T04:50:44.005Z,1013.53
2022-07-31T04:52:44.067Z,1013.58
2022-07-31T04:53:44.102Z,1013.56
2022-07-31T04:54:44.440Z,1013.56
2022-07-31T04:55:44.177Z,1013.60
2022-07-31T04:57:44.244Z,1013.56
2022-07-31T04:58:44.277Z,1013.51
2022-07-31T04:59:59.073Z,1013.54
2022-07-31T05:00:44.348Z,1013.56
2022-07-31T05:01:44.749Z,1013.51
2022-07-31T05:02:44.422Z,1013.52
2022-07-31T05:03:44.553Z,1013.53
2022-07-31T05:04:44.489Z,1013.53
2022-07-31T05:05:44.520Z,1013.55
2022-07-31T05:06:44.556Z,1013.56
2022-07-31T05:07:44.591Z,1013.56
2022-07-31T05:08:44.927Z,1013.57
2022-07-31T05:09:44.665Z,1013.58
2022-07-31T05:10:44.702Z,1013.59
2022-07-31T05:11:44.742Z,1013.63
2022-07-31T05:12:44.767Z,1013.66
2022-07-31T05:13:44.799Z,1013.68
2022-07-31T05:14:44.882Z,1013.69
2022-07-31T05:15:44.870Z,1013.66
2022-07-31T05:16:44.905Z,1013.67
2022-07-31T05:17:44.942Z,1013.66
2022-07-31T05:18:44.976Z,1013.68
2022-07-31T05:19:45.010Z,1013.67
2022-07-31T05:20:45.047Z,1013.68
2022-07-31T05:21:51.382Z,1013.65
2022-07-31T05:22:45.118Z,1013.64
2022-07-31T05:23:45.203Z,1013.65
2022-07-31T05:24:45.188Z,1013.64
2022-07-31T05:25:45.223Z,1013.66
2022-07-31T05:26:45.258Z,1013.58
2022-07-31T05:27:45.291Z,1013.61
2022-07-31T05:28:46.584Z,1013.57
2022-07-31T05:29:45.360Z,1013.57
2022-07-31T05:30:45.482Z,1013.57
2022-07-31T05:32:00.320Z,1013.57
2022-07-31T05:33:45.503Z,1013.59
2022-07-31T05:34:45.850Z,1013.61
2022-07-31T05:35:45.569Z,1013.66
2022-07-31T05:36:45.620Z,1013.65
2022-07-31T05:37:45.645Z,1013.64
2022-07-31T05:38:45.680Z,1013.66
2022-07-31T05:39:45.811Z,1013.67
2022-07-31T05:40:45.747Z,1013.67
2022-07-31T05:41:45.791Z,1013.70
2022-07-31T05:42:45.832Z,1013.72
2022-07-31T05:43:45.859Z,1013.77
2022-07-31T05:44:45.884Z,1013.78
2022-07-31T05:45:45.928Z,1013.76
2022-07-31T05:46:45.970Z,1013.75
2022-07-31T05:47:46.007Z,1013.70
2022-07-31T05:48:46.115Z,1013.67
2022-07-31T05:49:46.063Z,1013.66
2022-07-31T05:50:46.097Z,1013.64
2022-07-31T05:51:46.379Z,1013.62
2022-07-31T05:52:46.467Z,1013.62
2022-07-31T05:53:46.310Z,1013.64
2022-07-31T05:54:46.240Z,1013.64
2022-07-31T05:55:46.292Z,1013.67
2022-07-31T05:56:46.315Z,1013.67
2022-07-31T05:57:46.445Z,1013.68
2022-07-31T05:58:48.501Z,1013.63
2022-07-31T05:59:46.717Z,1013.63
2022-07-31T06:00:46.446Z,1013.63
2022-07-31T06:01:46.651Z,1013.66
2022-07-31T06:02:46.517Z,1013.65
2022-07-31T06:03:51.965Z,1013.64
2022-07-31T06:04:46.594Z,1013.63
2022-07-31T06:05:46.623Z,1013.63
2022-07-31T06:06:46.905Z,1013.66
2022-07-31T06:07:51.325Z,1013.65
2022-07-31T06:08:46.729Z,1013.63
2022-07-31T06:09:46.776Z,1013.67
2022-07-31T06:10:46.796Z,1013.65
2022-07-31T06:11:46.834Z,1013.66
2022-07-31T06:12:46.884Z,1013.65
2022-07-31T06:13:47.239Z,1013.67
2022-07-31T06:14:46.937Z,1013.70
2022-07-31T06:15:49.395Z,1013.67
2022-07-31T06:16:47.012Z,1013.68
2022-07-31T06:17:47.050Z,1013.70
2022-07-31T06:18:47.077Z,1013.65
2022-07-31T06:20:47.399Z,1013.66
2022-07-31T06:21:47.201Z,1013.70
2022-07-31T06:22:47.220Z,1013.67
2022-07-31T06:23:47.254Z,1013.64
2022-07-31T06:24:47.295Z,1013.68
2022-07-31T06:25:47.326Z,1013.66
2022-07-31T06:26:47.659Z,1013.67
2022-07-31T06:27:52.011Z,1013.67
2022-07-31T06:28:49.247Z,1013.66
2022-07-31T06:29:47.486Z,1013.66
2022-07-31T06:30:47.507Z,1013.71
2022-07-31T06:31:47.535Z,1013.66
2022-07-31T06:32:47.823Z,1013.70
2022-07-31T06:33:48.567Z,1013.70
2022-07-31T06:34:47.642Z,1013.69
2022-07-31T06:35:47.676Z,1013.72
2022-07-31T06:36:47.714Z,1013.69
2022-07-31T06:37:47.792Z,1013.67
2022-07-31T06:38:47.797Z,1013.69
2022-07-31T06:39:54.832Z,1013.60
2022-07-31T06:40:47.853Z,1013.60
2022-07-31T06:41:47.899Z,1013.63
2022-07-31T06:42:47.928Z,1013.62
2022-07-31T06:43:47.965Z,1013.60
2022-07-31T06:44:48.303Z,1013.62
2022-07-31T06:45:52.019Z,1013.61
2022-07-31T06:46:48.984Z,1013.57
2022-07-31T06:47:48.106Z,1013.59
2022-07-31T06:48:48.219Z,1013.58
2022-07-31T06:49:48.187Z,1013.56
2022-07-31T06:50:48.205Z,1013.58
2022-07-31T06:51:48.490Z,1013.57
2022-07-31T06:52:48.276Z,1013.59
2022-07-31T06:53:48.317Z,1013.56
2022-07-31T06:54:48.347Z,1013.59
2022-07-31T06:55:48.379Z,1013.58
2022-07-31T06:56:48.417Z,1013.61
2022-07-31T06:58:48.742Z,1013.71
2022-07-31T06:59:48.528Z,1013.74
2022-07-31T07:00:48.559Z,1013.78
2022-07-31T07:01:48.673Z,1013.81
2022-07-31T07:02:48.629Z,1013.84
2022-07-31T07:03:48.664Z,1013.83
2022-07-31T07:04:58.402Z,1013.82
2022-07-31T07:05:48.736Z,1013.77
2022-07-31T07:06:48.771Z,1013.79
2022-07-31T07:08:48.868Z,1013.75
2022-07-31T07:09:48.988Z,1013.77
2022-07-31T07:10:48.916Z,1013.74
2022-07-31T07:11:54.468Z,1013.74
2022-07-31T07:12:48.993Z,1013.77
2022-07-31T07:13:49.017Z,1013.77
2022-07-31T07:14:49.055Z,1013.74
2022-07-31T07:15:49.092Z,1013.74
2022-07-31T07:16:49.126Z,1013.73
2022-07-31T07:17:49.166Z,1013.72
2022-07-31T07:18:49.196Z,1013.75
2022-07-31T07:19:49.616Z,1013.74
2022-07-31T07:20:49.332Z,1013.75
2022-07-31T07:21:49.301Z,1013.75
2022-07-31T07:22:49.338Z,1013.80
2022-07-31T07:23:49.372Z,1013.74
2022-07-31T07:24:49.413Z,1013.75
2022-07-31T07:25:49.443Z,1013.75
2022-07-31T07:26:49.482Z,1013.72
2022-07-31T07:27:49.524Z,1013.74
2022-07-31T07:28:49.556Z,1013.71
2022-07-31T07:29:49.619Z,1013.73
2022-07-31T07:30:49.640Z,1013.69
2022-07-31T07:31:49.658Z,1013.66
2022-07-31T07:32:49.692Z,1013.65
2022-07-31T07:33:49.732Z,1013.68
2022-07-31T07:34:49.771Z,1013.65
2022-07-31T07:35:49.803Z,1013.64
2022-07-31T07:36:49.835Z,1013.67
2022-07-31T07:37:49.868Z,1013.65
2022-07-31T07:39:49.942Z,1013.70
2022-07-31T07:40:49.974Z,1013.72
2022-07-31T07:41:50.021Z,1013.68
2022-07-31T07:42:50.050Z,1013.68
2022-07-31T07:43:52.553Z,1013.70
2022-07-31T07:44:50.124Z,1013.63
2022-07-31T07:45:50.157Z,1013.63
2022-07-31T07:46:50.198Z,1013.61
2022-07-31T07:48:02.355Z,1013.69
2022-07-31T07:48:50.313Z,1013.64
2022-07-31T07:49:50.297Z,1013.65
2022-07-31T07:50:50.333Z,1013.61
2022-07-31T07:51:58.447Z,1013.62
2022-07-31T07:52:50.507Z,1013.62
2022-07-31T07:53:50.692Z,1013.60
2022-07-31T07:54:50.474Z,1013.59
2022-07-31T07:55:50.518Z,1013.51
2022-07-31T07:56:50.551Z,1013.45
2022-07-31T07:57:50.591Z,1013.50
2022-07-31T07:58:51.127Z,1013.47
2022-07-31T07:59:51.052Z,1013.52
2022-07-31T08:00:51.333Z,1013.46
2022-07-31T08:01:51.506Z,1013.43
2022-07-31T08:03:47.395Z,1013.40
2022-07-31T08:03:52.331Z,1013.42
2022-07-31T08:05:51.169Z,1013.47
2022-07-31T08:06:50.915Z,1013.44
2022-07-31T08:07:51.037Z,1013.43
2022-07-31T08:08:50.982Z,1013.38
2022-07-31T08:09:51.011Z,1013.36
2022-07-31T08:10:51.049Z,1013.36
2022-07-31T08:11:51.082Z,1013.39
2022-07-31T08:12:51.420Z,1013.41
2022-07-31T08:14:51.189Z,1013.35
2022-07-31T08:15:51.226Z,1013.41
2022-07-31T08:16:51.266Z,1013.41
2022-07-31T08:17:51.312Z,1013.40
2022-07-31T08:18:51.337Z,1013.44
2022-07-31T08:19:51.496Z,1013.47
2022-07-31T08:20:51.423Z,1013.48
2022-07-31T08:21:51.453Z,1013.51
2022-07-31T08:22:51.477Z,1013.46
2022-07-31T08:23:51.512Z,1013.47
2022-07-31T08:24:51.551Z,1013.43
2022-07-31T08:25:51.612Z,1013.38
2022-07-31T08:26:51.637Z,1013.37
2022-07-31T08:27:51.669Z,1013.35
2022-07-31T08:28:51.692Z,1013.32
2022-07-31T08:29:51.742Z,1013.30
2022-07-31T08:30:51.767Z,1013.34
2022-07-31T08:31:51.826Z,1013.32
2022-07-31T08:32:51.839Z,1013.35
2022-07-31T08:33:51.873Z,1013.34
2022-07-31T08:34:51.909Z,1013.30
2022-07-31T08:35:51.983Z,1013.30
2022-07-31T08:36:51.979Z,1013.30
2022-07-31T08:38:02.242Z,1013.27
2022-07-31T08:38:52.058Z,1013.27
2022-07-31T08:39:52.109Z,1013.24
2022-07-31T08:40:52.125Z,1013.28
2022-07-31T08:41:52.160Z,1013.30
2022-07-31T08:42:52.501Z,1013.35
2022-07-31T08:44:02.129Z,1013.28
2022-07-31T08:44:52.267Z,1013.35
2022-07-31T08:45:52.304Z,1013.33
2022-07-31T08:46:52.340Z,1013.31
2022-07-31T08:47:52.380Z,1013.29
2022-07-31T08:48:52.482Z,1013.30
2022-07-31T08:49:52.785Z,1013.29
2022-07-31T08:50:53.972Z,1013.25
2022-07-31T08:51:52.867Z,1013.29
2022-07-31T08:52:52.558Z,1013.25
2022-07-31T08:53:52.595Z,1013.25
2022-07-31T08:54:52.628Z,1013.23
2022-07-31T08:55:57.070Z,1013.28
2022-07-31T08:56:52.775Z,1013.24
2022-07-31T08:57:52.736Z,1013.30
2022-07-31T08:58:52.827Z,1013.24
2022-07-31T08:59:52.840Z,1013.18
2022-07-31T09:00:52.898Z,1013.24
2022-07-31T09:01:52.907Z,1013.20
2022-07-31T09:02:52.919Z,1013.21
2022-07-31T09:03:52.952Z,1013.14
2022-07-31T09:04:53.171Z,1013.19
2022-07-31T09:06:53.064Z,1013.19
2022-07-31T09:07:53.131Z,1013.21
2022-07-31T09:08:53.433Z,1013.25
2022-07-31T09:09:53.167Z,1013.22
2022-07-31T09:10:53.204Z,1013.30
2022-07-31T09:11:53.257Z,1013.29
2022-07-31T09:12:53.427Z,1013.31
2022-07-31T09:14:01.442Z,1013.31
2022-07-31T09:14:53.349Z,1013.31
2022-07-31T09:15:53.394Z,1013.32
2022-07-31T09:16:53.422Z,1013.34
2022-07-31T09:18:53.496Z,1013.34
2022-07-31T09:19:55.002Z,1013.34
2022-07-31T09:20:53.572Z,1013.38
2022-07-31T09:21:53.601Z,1013.39
2022-07-31T09:22:53.647Z,1013.36
2022-07-31T09:23:53.685Z,1013.37
2022-07-31T09:24:53.723Z,1013.38
2022-07-31T09:25:53.750Z,1013.33
2022-07-31T09:26:53.783Z,1013.33
2022-07-31T09:27:54.124Z,1013.32
2022-07-31T09:28:53.861Z,1013.27
2022-07-31T09:29:53.894Z,1013.21
2022-07-31T09:30:55.610Z,1013.20
2022-07-31T09:31:53.964Z,1013.15
2022-07-31T09:32:54.011Z,1013.19
2022-07-31T09:33:54.037Z,1013.14
2022-07-31T09:34:54.106Z,1013.08
2022-07-31T09:35:54.114Z,1013.14
2022-07-31T09:36:54.154Z,1013.12
2022-07-31T09:37:54.187Z,1013.17
2022-07-31T09:38:54.221Z,1013.24
2022-07-31T09:39:54.257Z,1013.31
2022-07-31T09:40:57.003Z,1013.34
2022-07-31T09:41:58.288Z,1013.32
2022-07-31T09:42:55.297Z,1013.32
2022-07-31T09:43:54.404Z,1013.27
2022-07-31T09:45:54.484Z,1013.31
2022-07-31T09:46:54.511Z,1013.32
2022-07-31T09:47:54.549Z,1013.29
2022-07-31T09:48:56.695Z,1013.28
2022-07-31T09:49:54.625Z,1013.28
2022-07-31T09:50:54.813Z,1013.29
2022-07-31T09:51:54.694Z,1013.30
2022-07-31T09:52:55.031Z,1013.28
2022-07-31T09:53:54.767Z,1013.34
2022-07-31T09:54:54.808Z,1013.31
2022-07-31T09:55:54.839Z,1013.27
2022-07-31T09:56:54.896Z,1013.30
2022-07-31T09:57:54.913Z,1013.26
2022-07-31T09:58:54.952Z,1013.25
2022-07-31T09:59:54.989Z,1013.31
2022-07-31T10:00:55.040Z,1013.27
2022-07-31T10:01:55.437Z,1013.27
2022-07-31T10:02:55.107Z,1013.25
2022-07-31T10:03:55.133Z,1013.24
2022-07-31T10:04:55.178Z,1013.25
2022-07-31T10:05:55.468Z,1013.24
2022-07-31T10:06:55.243Z,1013.29
2022-07-31T10:07:55.279Z,1013.28
2022-07-31T10:08:55.321Z,1013.35
2022-07-31T10:09:55.357Z,1013.28
2022-07-31T10:10:55.399Z,1013.27
2022-07-31T10:11:55.680Z,1013.26
2022-07-31T10:12:55.467Z,1013.31
2022-07-31T10:13:55.501Z,1013.32
2022-07-31T10:14:55.535Z,1013.33
2022-07-31T10:15:55.577Z,1013.29
2022-07-31T10:16:55.611Z,1013.28
2022-07-31T10:17:55.948Z,1013.25
2022-07-31T10:18:55.685Z,1013.20
2022-07-31T10:19:55.721Z,1013.18
2022-07-31T10:20:55.762Z,1013.20
2022-07-31T10:21:55.827Z,1013.21
2022-07-31T10:22:55.832Z,1013.20
2022-07-31T10:23:55.872Z,1013.21
2022-07-31T10:24:56.156Z,1013.19
2022-07-31T10:25:55.951Z,1013.17
2022-07-31T10:27:10.353Z,1013.09
2022-07-31T10:27:56.018Z,1013.13
2022-07-31T10:28:56.054Z,1013.12
2022-07-31T10:29:56.099Z,1013.11
2022-07-31T10:30:56.227Z,1013.04
2022-07-31T10:31:56.486Z,1012.94
2022-07-31T10:32:56.239Z,1012.89
2022-07-31T10:33:56.240Z,1012.87
2022-07-31T10:34:56.274Z,1012.85
2022-07-31T10:35:56.315Z,1012.87
2022-07-31T10:36:56.366Z,1012.92
2022-07-31T10:37:56.475Z,1012.92
2022-07-31T10:38:56.424Z,1012.90
2022-07-31T10:39:56.461Z,1012.98
2022-07-31T10:40:56.494Z,1012.96
2022-07-31T10:41:56.557Z,1012.96
2022-07-31T10:42:56.572Z,1013.01
2022-07-31T10:43:56.607Z,1012.97
2022-07-31T10:44:56.643Z,1012.84
2022-07-31T10:45:56.678Z,1012.86
2022-07-31T10:46:56.716Z,1012.87
2022-07-31T10:47:56.753Z,1012.98
2022-07-31T10:48:56.874Z,1013.00
2022-07-31T10:49:56.828Z,1013.06
2022-07-31T10:50:56.864Z,1013.13
2022-07-31T10:51:56.907Z,1013.18
2022-07-31T10:53:00.578Z,1013.10
2022-07-31T10:55:23.130Z,1013.04
2022-07-31T10:56:23.164Z,1013.04
2022-07-31T10:57:23.205Z,1013.06
2022-07-31T10:58:23.238Z,1013.08
2022-07-31T10:59:23.278Z,1013.00
2022-07-31T11:00:23.317Z,1012.98
2022-07-31T11:01:23.407Z,1012.99
2022-07-31T11:02:23.389Z,1013.01
2022-07-31T11:03:23.532Z,1012.96
2022-07-31T11:04:23.561Z,1012.89
2022-07-31T11:05:23.553Z,1012.88
2022-07-31T11:06:23.539Z,1012.87
2022-07-31T11:07:23.575Z,1012.85
2022-07-31T11:08:23.662Z,1012.84
2022-07-31T11:09:23.647Z,1012.84
2022-07-31T11:10:23.687Z,1012.85
2022-07-31T11:11:26.263Z,1012.85
2022-07-31T11:12:23.777Z,1012.86
2022-07-31T11:13:23.805Z,1012.93
2022-07-31T11:14:23.830Z,1012.90
2022-07-31T11:15:23.873Z,1012.93
2022-07-31T11:16:23.906Z,1012.90
2022-07-31T11:18:20.994Z,1012.91
2022-07-31T11:18:27.727Z,1012.89
2022-07-31T11:19:24.025Z,1012.94
2022-07-31T11:20:24.309Z,1012.91
2022-07-31T11:22:31.985Z,1012.85
2022-07-31T11:24:24.210Z,1012.83
2022-07-31T11:25:24.264Z,1012.77
2022-07-31T11:28:24.356Z,1012.91
2022-07-31T11:29:59.506Z,1012.85
2022-07-31T11:30:24.427Z,1012.85
2022-07-31T11:31:24.769Z,1012.83
2022-07-31T11:32:25.758Z,1012.77
2022-07-31T11:33:24.547Z,1012.75
2022-07-31T11:34:24.618Z,1012.78
2022-07-31T11:35:24.616Z,1012.76
2022-07-31T11:36:24.664Z,1012.73
2022-07-31T11:37:24.689Z,1012.68
2022-07-31T11:38:24.724Z,1012.65
2022-07-31T11:39:31.412Z,1012.71
2022-07-31T11:40:27.834Z,1012.76
2022-07-31T11:41:24.860Z,1012.78
2022-07-31T11:42:27.319Z,1012.80
2022-07-31T11:43:26.204Z,1012.79
2022-07-31T11:44:24.959Z,1012.81
2022-07-31T11:45:24.987Z,1012.83
2022-07-31T11:48:10.152Z,1012.80
2022-07-31T11:48:27.532Z,1012.82
2022-07-31T11:50:25.481Z,1012.69
2022-07-31T11:52:31.001Z,1012.71
2022-07-31T11:53:25.294Z,1012.70
2022-07-31T11:54:25.326Z,1012.66
2022-07-31T11:55:25.360Z,1012.53
2022-07-31T11:56:25.405Z,1012.52
2022-07-31T11:57:25.438Z,1012.52
2022-07-31T11:58:25.476Z,1012.61
2022-07-31T11:59:45.980Z,1012.61
2022-07-31T12:00:28.817Z,1012.45
2022-07-31T12:01:25.590Z,1012.38
2022-07-31T12:02:25.678Z,1012.35
2022-07-31T12:03:25.674Z,1012.43
2022-07-31T12:04:25.702Z,1012.49
2022-07-31T12:05:38.636Z,1012.55
2022-07-31T12:06:25.773Z,1012.62
2022-07-31T12:07:25.811Z,1012.57
2022-07-31T12:08:25.850Z,1012.55
2022-07-31T12:10:02.657Z,1012.49
2022-07-31T12:10:25.926Z,1012.52
2022-07-31T12:11:25.959Z,1012.49
2022-07-31T12:12:27.393Z,1012.48
2022-07-31T12:13:26.034Z,1012.48
2022-07-31T12:14:26.076Z,1012.59
2022-07-31T12:15:26.115Z,1012.58
2022-07-31T12:16:26.163Z,1012.44
2022-07-31T12:17:26.185Z,1012.52
2022-07-31T12:18:26.474Z,1012.55
2022-07-31T12:19:26.260Z,1012.48
2022-07-31T12:20:35.420Z,1012.42
2022-07-31T12:21:26.334Z,1012.38
2022-07-31T12:22:26.383Z,1012.43
2022-07-31T12:23:40.919Z,1012.53
2022-07-31T12:24:26.454Z,1012.51
2022-07-31T12:25:26.486Z,1012.54
2022-07-31T12:26:26.524Z,1012.55
2022-07-31T12:27:26.556Z,1012.65
2022-07-31T12:28:26.598Z,1012.50
2022-07-31T12:29:26.635Z,1012.46
2022-07-31T12:31:27.014Z,1012.57
2022-07-31T12:32:26.746Z,1012.49
2022-07-31T12:33:26.814Z,1012.49
2022-07-31T12:34:26.834Z,1012.43
2022-07-31T12:35:26.863Z,1012.42
2022-07-31T12:36:27.054Z,1012.37
2022-07-31T12:37:26.937Z,1012.35
2022-07-31T12:38:45.263Z,1012.33
2022-07-31T12:39:50.780Z,1012.42
2022-07-31T12:40:27.054Z,1012.47
2022-07-31T12:41:27.115Z,1012.51
2022-07-31T12:42:30.491Z,1012.49
2022-07-31T12:43:27.162Z,1012.48